Time;durP1;ratioP1;P1;durP2;ratioP2;P2;SDS_P1;SDS_P2;PMS_P1;PMS_P2;Temp;Humidity;BMP_temperature;BMP_pressure;BME280_temperature;BME280_humidity;BME280_pressure;Samples;Min_cycle;Max_cycle;Signal;HPM_P1;HPM_P2
2022/11/16 00:01:42;;;;;;;8.73;4.45;;;5.90;99.90;;;;;;5053501;28;20414;-50
2022/11/16 00:04:10;;;;;;;10.98;5.28;;;5.90;99.90;;;;;;5051089;28;20374;-49
2022/11/16 00:06:38;;;;;;;10.95;6.03;;;5.90;99.90;;;;;;5053212;28;20595;-49
2022/11/16 00:09:27;;;;;;;16.23;5.57;;;5.90;99.90;;;;;;5052562;28;20127;-48
2022/11/16 00:12:00;;;;;;;11.23;5.43;;;5.90;99.90;;;;;;5051537;28;20076;-48
2022/11/16 00:14:30;;;;;;;13.52;6.18;;;5.80;99.90;;;;;;5053063;28;20379;-47
2022/11/16 00:16:58;;;;;;;12.27;5.50;;;5.80;99.90;;;;;;5054793;28;20134;-48
2022/11/16 00:19:26;;;;;;;9.15;5.40;;;5.90;99.90;;;;;;5052367;28;20049;-49
2022/11/16 00:21:53;;;;;;;;;;;5.90;99.90;;;;;;5052874;28;20049;-48
2022/11/16 00:24:22;;;;;;;11.02;5.30;;;5.90;99.90;;;;;;5060702;28;19966;-48
2022/11/16 00:26:51;;;;;;;10.20;5.55;;;5.90;99.90;;;;;;5073092;28;20392;-47
2022/11/16 00:29:22;;;;;;;15.63;5.75;;;5.80;99.90;;;;;;5073022;28;20116;-50
2022/11/16 00:31:49;;;;;;;14.45;5.65;;;5.80;99.90;;;;;;5070806;28;20041;-47
2022/11/16 00:34:17;;;;;;;9.10;5.28;;;5.80;99.90;;;;;;5073554;28;20033;-48
2022/11/16 00:36:44;;;;;;;11.60;4.80;;;5.90;99.90;;;;;;5072526;28;20048;-47
2022/11/16 00:39:12;;;;;;;8.30;4.65;;;6.00;99.90;;;;;;5067532;28;20516;-48
2022/11/16 00:41:39;;;;;;;11.63;5.97;;;6.00;99.90;;;;;;5056971;28;20033;-49
2022/11/16 00:44:08;;;;;;;14.13;6.70;;;6.00;99.90;;;;;;5035190;28;20041;-50
2022/11/16 00:46:34;;;;;;;;;;;5.90;99.90;;;;;;5053049;28;20497;-48
2022/11/16 00:49:01;;;;;;;9.95;5.18;;;5.90;99.90;;;;;;5058257;28;19921;-48
2022/11/16 00:51:28;;;;;;;8.93;4.97;;;5.90;99.90;;;;;;5040994;28;20516;-48
2022/11/16 00:53:55;;;;;;;9.75;5.18;;;5.80;99.90;;;;;;5051906;28;20068;-47
2022/11/16 00:56:22;;;;;;;9.20;5.57;;;5.80;99.90;;;;;;5051945;28;20092;-49
2022/11/16 00:58:49;;;;;;;11.98;4.93;;;5.80;99.90;;;;;;5035093;28;20064;-48
2022/11/16 01:01:16;;;;;;;6.03;3.78;;;5.80;99.90;;;;;;5055836;28;20110;-49
2022/11/16 01:03:43;;;;;;;10.07;4.70;;;5.90;99.90;;;;;;5072370;28;20135;-48
2022/11/16 01:06:13;;;;;;;10.00;5.38;;;5.90;99.90;;;;;;5053301;28;20048;-48
2022/11/16 01:08:41;;;;;;;9.07;4.82;;;5.90;99.90;;;;;;5054758;28;20036;-47
2022/11/16 01:13:57;;;;;;;9.65;4.60;;;5.90;99.90;;;;;;5052317;28;20037;-48
2022/11/16 01:16:24;;;;;;;9.00;4.60;;;5.90;99.90;;;;;;5034509;28;20082;-48
2022/11/16 01:18:53;;;;;;;8.13;5.28;;;5.90;99.90;;;;;;5051291;28;20041;-48
2022/11/16 01:21:21;;;;;;;8.90;4.68;;;5.90;99.90;;;;;;5051999;28;20041;-50
2022/11/16 01:23:48;;;;;;;11.55;4.60;;;5.90;99.90;;;;;;5051766;28;20049;-48
2022/11/16 01:26:15;;;;;;;8.35;4.57;;;5.90;99.90;;;;;;5033761;28;20099;-48
2022/11/16 01:28:43;;;;;;;8.23;4.70;;;5.90;99.90;;;;;;5032417;28;20124;-50
2022/11/16 01:31:11;;;;;;;9.18;4.72;;;5.90;99.90;;;;;;5053391;28;20048;-48
2022/11/16 01:33:39;;;;;;;11.80;4.45;;;6.00;99.90;;;;;;5053439;28;20131;-48
2022/11/16 01:36:13;;;;;;;7.95;4.10;;;6.00;99.90;;;;;;5054252;28;20087;-49
2022/11/16 01:38:42;;;;;;;9.68;4.68;;;6.00;99.90;;;;;;5037111;28;20049;-49
2022/11/16 01:41:14;;;;;;;9.32;4.80;;;6.00;99.90;;;;;;5015389;28;20049;-48
2022/11/16 01:43:57;;;;;;;8.13;4.65;;;6.00;99.90;;;;;;5022456;28;20059;-49
2022/11/16 01:46:29;;;;;;;10.32;4.88;;;6.00;99.90;;;;;;5050577;28;20091;-48
2022/11/16 01:49:09;;;;;;;10.77;4.47;;;6.00;99.90;;;;;;5050606;28;20036;-48
2022/11/16 01:51:38;;;;;;;10.25;4.72;;;5.90;99.90;;;;;;5033583;28;20037;-48
2022/11/16 01:54:08;;;;;;;9.90;4.47;;;5.90;99.90;;;;;;5032503;28;20421;-48
2022/11/16 01:56:40;;;;;;;10.45;4.82;;;5.90;99.90;;;;;;5034248;28;20033;-48
2022/11/16 01:59:16;;;;;;;5.97;3.92;;;5.90;99.90;;;;;;5034464;28;20140;-48
2022/11/16 02:01:43;;;;;;;9.38;4.60;;;5.90;99.90;;;;;;5031591;28;20405;-48
2022/11/16 02:04:11;;;;;;;8.40;4.15;;;6.00;99.90;;;;;;5032162;28;20052;-48
2022/11/16 02:07:01;;;;;;;8.07;4.22;;;6.00;99.90;;;;;;5031691;28;20452;-48
2022/11/16 02:09:53;;;;;;;9.48;3.78;;;6.10;99.90;;;;;;5044715;28;20452;-48
2022/11/16 02:12:43;;;;;;;7.05;3.47;;;6.10;99.90;;;;;;5033084;28;20037;-48
2022/11/16 02:15:18;;;;;;;10.10;4.47;;;6.10;99.90;;;;;;5033472;28;20459;-48
2022/11/16 02:18:06;;;;;;;10.40;4.53;;;6.20;99.90;;;;;;5030028;28;20539;-51
2022/11/16 02:21:02;;;;;;;10.60;4.22;;;6.20;99.90;;;;;;5051180;28;20544;-50
2022/11/16 02:23:48;;;;;;;11.75;4.93;;;6.20;99.90;;;;;;5033599;28;20048;-48
2022/11/16 02:26:27;;;;;;;8.02;4.32;;;6.20;99.90;;;;;;5059089;28;20132;-50
2022/11/16 02:29:19;;;;;;;9.18;5.47;;;6.20;99.90;;;;;;5052109;28;20044;-48
2022/11/16 02:31:58;;;;;;;7.32;3.95;;;6.20;99.90;;;;;;5050750;28;20041;-49
2022/11/16 02:34:29;;;;;;;7.45;4.07;;;6.20;99.90;;;;;;5032815;28;20045;-48
2022/11/16 02:36:58;;;;;;;8.60;4.20;;;6.20;99.90;;;;;;5029637;28;20049;-49
2022/11/16 02:39:28;;;;;;;7.20;3.80;;;6.20;99.90;;;;;;5032333;28;20065;-48
2022/11/16 02:41:57;;;;;;;7.32;4.43;;;6.30;99.90;;;;;;5032847;28;20048;-49
2022/11/16 02:44:34;;;;;;;9.02;5.00;;;6.30;99.90;;;;;;5033625;28;20469;-48
2022/11/16 02:47:04;;;;;;;8.60;4.25;;;6.30;99.90;;;;;;5032318;28;20041;-48
2022/11/16 02:49:35;;;;;;;5.55;3.88;;;6.40;99.90;;;;;;5033525;28;20053;-48
2022/11/16 02:52:03;;;;;;;11.00;4.35;;;6.40;99.90;;;;;;5032141;28;20092;-48
2022/11/16 02:54:30;;;;;;;12.57;4.47;;;6.40;99.90;;;;;;5032179;28;20040;-48
2022/11/16 02:57:03;;;;;;;8.65;4.47;;;6.40;99.90;;;;;;5032968;28;20075;-48
2022/11/16 02:59:34;;;;;;;9.80;3.97;;;6.40;99.90;;;;;;5033054;28;20163;-49
2022/11/16 03:02:22;;;;;;;7.40;4.28;;;6.50;99.90;;;;;;5032769;28;20041;-52
2022/11/16 03:04:56;;;;;;;;;;;6.50;99.90;;;;;;5030160;28;20060;-48
2022/11/16 03:07:33;;;;;;;10.50;4.95;;;6.60;99.90;;;;;;5013344;28;20370;-48
2022/11/16 03:10:00;;;;;;;9.23;4.63;;;6.60;99.90;;;;;;5031241;28;20041;-48
2022/11/16 03:12:31;;;;;;;10.55;4.25;;;6.60;99.90;;;;;;5033238;23;20104;-49
2022/11/16 03:15:01;;;;;;;6.47;4.05;;;6.60;99.90;;;;;;5031698;28;20045;-52
2022/11/16 03:17:42;;;;;;;7.38;4.00;;;6.60;99.90;;;;;;5045685;28;20106;-52
2022/11/16 03:20:21;;;;;;;6.50;4.13;;;6.70;99.90;;;;;;5043188;28;20136;-51
2022/11/16 03:22:51;;;;;;;8.23;3.63;;;6.70;99.90;;;;;;5060680;28;20037;-49
2022/11/16 03:25:21;;;;;;;13.88;3.90;;;6.70;99.90;;;;;;5069232;28;20048;-48
2022/11/16 03:28:07;;;;;;;6.78;3.38;;;6.70;99.90;;;;;;5051188;28;20049;-52
2022/11/16 03:30:46;;;;;;;7.55;3.80;;;6.70;99.90;;;;;;5063832;28;20048;-52
2022/11/16 03:33:17;;;;;;;5.57;3.28;;;6.70;99.90;;;;;;5069122;28;20086;-49
2022/11/16 03:35:54;;;;;;;6.53;3.60;;;6.60;99.90;;;;;;5053015;28;20049;-50
2022/11/16 03:38:23;;;;;;;8.45;3.83;;;6.60;99.90;;;;;;5048513;28;20036;-55
2022/11/16 03:40:50;;;;;;;9.63;3.78;;;6.60;99.90;;;;;;5068856;28;20048;-51
2022/11/16 03:43:19;;;;;;;6.72;3.28;;;6.70;99.90;;;;;;5052262;28;20129;-52
2022/11/16 03:45:46;;;;;;;6.43;3.60;;;6.70;99.90;;;;;;5051053;28;20049;-51
2022/11/16 03:48:13;;;;;;;5.38;3.40;;;6.70;99.90;;;;;;5060438;28;20033;-48
2022/11/16 03:50:41;;;;;;;7.00;3.45;;;6.70;99.90;;;;;;5069242;28;20040;-49
2022/11/16 03:53:08;;;;;;;6.57;3.42;;;6.70;99.90;;;;;;5055747;28;20044;-49
2022/11/16 03:55:36;;;;;;;7.47;3.72;;;6.70;99.90;;;;;;5052945;28;20051;-50
2022/11/16 03:58:04;;;;;;;5.93;3.03;;;6.70;99.90;;;;;;5070918;28;20044;-52
2022/11/16 04:00:32;;;;;;;6.45;3.13;;;6.70;99.90;;;;;;5056331;28;20504;-48
2022/11/16 04:03:05;;;;;;;6.53;3.63;;;6.60;99.90;;;;;;5053519;28;20051;-51
2022/11/16 04:25:25;;;;;;;6.93;3.65;;;6.50;99.90;;;;;;5075920;28;20093;-51
2022/11/16 04:39:03;;;;;;;8.32;4.88;;;6.50;99.90;;;;;;5073306;28;20499;-51
2022/11/16 04:44:17;;;;;;;7.57;4.32;;;6.40;99.90;;;;;;5070009;28;20064;-52
2022/11/16 04:49:32;;;;;;;7.78;3.78;;;6.40;99.90;;;;;;5069222;28;20037;-49
2022/11/16 04:51:59;;;;;;;;;;;6.40;99.90;;;;;;5071519;28;20041;-50
2022/11/16 04:54:28;;;;;;;7.05;3.58;;;6.40;99.90;;;;;;5083364;28;19926;-53
2022/11/16 04:56:55;;;;;;;;;;;6.50;99.90;;;;;;5083297;28;20044;-48
2022/11/16 04:59:23;;;;;;;9.75;5.30;;;6.50;99.90;;;;;;5064657;28;19920;-49
2022/11/16 05:02:09;;;;;;;12.65;7.22;;;6.50;99.90;;;;;;5076800;28;20044;-52
2022/11/16 05:04:47;;;;;;;13.55;7.90;;;6.40;99.90;;;;;;5089728;28;20047;-50
2022/11/16 05:07:15;;;;;;;15.95;8.63;;;6.40;99.90;;;;;;5088544;28;20116;-49
2022/11/16 05:09:46;;;;;;;17.48;9.38;;;6.30;99.90;;;;;;5078281;28;20146;-50
2022/11/16 05:12:16;;;;;;;16.13;8.48;;;6.30;99.90;;;;;;5088811;28;20400;-48
2022/11/16 05:14:45;;;;;;;16.77;8.52;;;6.30;99.90;;;;;;5069836;28;20041;-47
2022/11/16 05:17:14;;;;;;;15.68;9.75;;;6.30;99.90;;;;;;5071807;28;20067;-48
2022/11/16 05:22:31;;;;;;;18.67;10.23;;;6.10;99.90;;;;;;5081910;28;20075;-50
2022/11/16 05:24:59;;;;;;;17.23;9.57;;;6.10;99.90;;;;;;5079217;28;20139;-48
2022/11/16 05:27:27;;;;;;;20.85;10.93;;;6.10;99.90;;;;;;5078982;28;20059;-49
2022/11/16 05:29:55;;;;;;;16.85;10.30;;;6.00;99.90;;;;;;5070035;28;20516;-48
2022/11/16 05:32:24;;;;;;;19.60;10.85;;;6.00;99.90;;;;;;5063343;28;20515;-49
2022/11/16 05:34:57;;;;;;;20.52;10.93;;;5.90;99.90;;;;;;5060432;28;20136;-49
2022/11/16 05:37:25;;;;;;;20.95;11.68;;;5.90;99.90;;;;;;5058493;28;20037;-48
2022/11/16 05:39:53;;;;;;;20.98;9.93;;;5.90;99.90;;;;;;5065861;28;20048;-49
2022/11/16 05:42:24;;;;;;;19.15;9.95;;;5.80;99.90;;;;;;5070121;28;20060;-51
2022/11/16 05:44:51;;;;;;;;;;;5.80;99.90;;;;;;5061370;28;20072;-49
2022/11/16 05:47:19;;;;;;;22.50;11.68;;;5.90;99.90;;;;;;5065874;28;20287;-50
2022/11/16 05:49:46;;;;;;;21.30;11.57;;;5.80;99.90;;;;;;5066019;28;20049;-49
2022/11/16 05:52:13;;;;;;;18.42;10.80;;;5.90;99.90;;;;;;5068571;28;20044;-47
2022/11/16 05:54:43;;;;;;;18.65;9.77;;;5.90;99.90;;;;;;5069158;28;20398;-48
2022/11/16 05:57:10;;;;;;;25.10;10.27;;;6.00;99.90;;;;;;5087852;28;20055;-48
2022/11/16 05:59:37;;;;;;;19.48;10.68;;;6.00;99.90;;;;;;5081744;28;20501;-48
2022/11/16 06:02:04;;;;;;;;;;;6.00;99.90;;;;;;5066220;28;20546;-48
2022/11/16 06:04:33;;;;;;;18.02;11.07;;;6.00;99.90;;;;;;5069085;28;19926;-49
2022/11/16 06:07:00;;;;;;;22.70;11.13;;;6.10;99.90;;;;;;5062495;28;20048;-48
2022/11/16 06:09:31;;;;;;;19.40;10.70;;;6.10;99.90;;;;;;5064016;28;20520;-48
2022/11/16 06:12:05;;;;;;;19.98;10.88;;;6.10;99.90;;;;;;5066529;28;20208;-48
2022/11/16 06:14:31;;;;;;;17.92;9.63;;;6.00;99.90;;;;;;5061745;28;20056;-51
2022/11/16 06:16:58;;;;;;;22.15;9.98;;;6.10;99.90;;;;;;5067769;28;20501;-49
2022/11/16 06:19:25;;;;;;;17.92;9.88;;;6.10;99.90;;;;;;5069956;28;20041;-51
2022/11/16 06:21:58;;;;;;;20.83;10.50;;;6.10;99.90;;;;;;5065498;28;20063;-50
2022/11/16 06:24:26;;;;;;;21.33;10.60;;;6.20;99.90;;;;;;5070049;28;20048;-48
2022/11/16 06:26:53;;;;;;;18.77;10.00;;;6.10;99.90;;;;;;5069534;28;20102;-49
2022/11/16 06:29:21;;;;;;;22.30;11.00;;;6.10;99.90;;;;;;5061255;28;20394;-49
2022/11/16 06:31:51;;;;;;;19.27;9.77;;;6.10;99.90;;;;;;5069228;28;20048;-52
2022/11/16 06:34:17;;;;;;;18.20;11.07;;;6.10;99.90;;;;;;5068999;28;20040;-49
2022/11/16 06:36:44;;;;;;;20.20;12.20;;;6.00;99.90;;;;;;5068576;28;20106;-47
2022/11/16 06:39:12;;;;;;;26.38;13.20;;;6.10;99.90;;;;;;5069735;28;20452;-51
2022/11/16 06:41:39;;;;;;;24.40;13.25;;;6.10;99.90;;;;;;5070802;28;20659;-49
2022/11/16 06:44:09;;;;;;;23.42;12.48;;;6.10;99.90;;;;;;5050368;28;20079;-49
2022/11/16 06:46:40;;;;;;;24.83;13.95;;;6.10;99.90;;;;;;5069628;28;20508;-48
2022/11/16 06:49:07;;;;;;;23.10;13.82;;;6.20;99.90;;;;;;5069067;28;20036;-51
2022/11/16 06:51:35;;;;;;;24.65;13.15;;;6.20;99.90;;;;;;5052073;28;20575;-48
2022/11/16 06:54:02;;;;;;;23.65;12.95;;;6.20;99.90;;;;;;5051471;28;20041;-50
2022/11/16 06:56:29;;;;;;;29.92;14.00;;;6.20;99.90;;;;;;5056756;28;20571;-50
2022/11/16 06:58:57;;;;;;;26.70;14.40;;;6.20;99.90;;;;;;5066897;28;20052;-48
2022/11/16 07:01:26;;;;;;;30.38;13.82;;;6.10;99.90;;;;;;5068980;28;20519;-51
2022/11/16 07:03:59;;;;;;;26.02;12.35;;;6.10;99.90;;;;;;5069769;28;20080;-50
2022/11/16 07:06:26;;;;;;;24.70;12.68;;;6.10;99.90;;;;;;5065238;28;20075;-48
2022/11/16 07:08:54;;;;;;;21.38;12.25;;;6.10;99.90;;;;;;5069519;28;20041;-48
2022/11/16 07:11:24;;;;;;;24.80;12.52;;;6.10;99.90;;;;;;5068758;28;20037;-47
2022/11/16 07:13:51;;;;;;;24.80;12.32;;;6.10;99.90;;;;;;5067902;28;20036;-51
2022/11/16 07:16:20;;;;;;;24.35;12.60;;;6.10;99.90;;;;;;5058240;28;20037;-51
2022/11/16 07:18:58;;;;;;;23.08;12.65;;;6.10;99.90;;;;;;5069119;28;20508;-48
2022/11/16 07:21:27;;;;;;;26.40;12.68;;;6.10;99.90;;;;;;5068814;28;20460;-48
2022/11/16 07:23:55;;;;;;;23.45;12.57;;;6.20;99.90;;;;;;5069157;28;20045;-48
2022/11/16 07:26:22;;;;;;;23.80;12.25;;;6.20;99.90;;;;;;5062584;28;20051;-48
2022/11/16 07:28:58;;;;;;;23.27;11.73;;;6.20;99.90;;;;;;5075133;28;20493;-47
2022/11/16 07:31:25;;;;;;;24.52;12.40;;;6.20;99.90;;;;;;5065619;28;20101;-48
2022/11/16 07:34:10;;;;;;;22.00;12.43;;;6.30;99.90;;;;;;5070542;28;20417;-47
2022/11/16 07:36:49;;;;;;;22.48;13.00;;;6.30;99.90;;;;;;5068582;28;20041;-47
2022/11/16 07:39:16;;;;;;;;;;;6.30;99.90;;;;;;5072318;28;20420;-48
2022/11/16 07:41:45;;;;;;;26.77;13.27;;;6.30;99.90;;;;;;5072143;28;19928;-47
2022/11/16 07:44:22;;;;;;;25.52;13.05;;;6.30;99.90;;;;;;5064657;28;20047;-48
2022/11/16 07:47:02;;;;;;;22.08;12.93;;;6.30;99.90;;;;;;5072303;28;20121;-47
2022/11/16 07:49:32;;;;;;;25.90;14.30;;;6.30;99.90;;;;;;5070189;28;20048;-48
2022/11/16 07:52:09;;;;;;;24.98;13.23;;;6.30;99.90;;;;;;5071741;28;20047;-49
2022/11/16 07:54:45;;;;;;;23.92;13.32;;;6.30;99.90;;;;;;5072487;28;20400;-47
2022/11/16 07:57:13;;;;;;;26.20;13.18;;;6.30;99.90;;;;;;5068496;28;20063;-49
2022/11/16 07:59:41;;;;;;;27.08;12.75;;;6.30;99.90;;;;;;5072499;28;20055;-48
2022/11/16 08:02:11;;;;;;;23.75;13.55;;;6.30;99.90;;;;;;5072076;28;20052;-48
2022/11/16 08:04:39;;;;;;;24.15;13.18;;;6.30;99.90;;;;;;5069707;28;20048;-48
2022/11/16 08:07:07;;;;;;;21.45;12.40;;;6.30;99.90;;;;;;5071004;28;20463;-50
2022/11/16 08:09:40;;;;;;;23.15;13.20;;;6.40;99.90;;;;;;5071826;28;20036;-50
2022/11/16 08:12:12;;;;;;;29.20;13.85;;;6.40;99.90;;;;;;5070429;28;20032;-51
2022/11/16 08:14:39;;;;;;;27.45;14.18;;;6.40;99.90;;;;;;5082980;28;20073;-48
2022/11/16 08:17:07;;;;;;;24.00;12.70;;;6.50;99.90;;;;;;5070358;28;20051;-49
2022/11/16 08:19:35;;;;;;;21.95;13.13;;;6.50;99.90;;;;;;5071955;28;20501;-49
2022/11/16 08:22:02;;;;;;;165.82;60.28;;;6.50;99.90;;;;;;5067129;28;20040;-52
2022/11/16 08:24:31;;;;;;;68.53;30.77;;;6.50;99.90;;;;;;5071969;28;20086;-48
2022/11/16 08:26:58;;;;;;;46.35;21.52;;;6.60;99.90;;;;;;5071393;28;20072;-48
2022/11/16 08:29:25;;;;;;;;;;;6.70;99.90;;;;;;5072619;28;20053;-48
2022/11/16 08:31:55;;;;;;;31.42;13.90;;;6.70;99.90;;;;;;5069046;28;20300;-50
2022/11/16 08:34:22;;;;;;;26.70;14.10;;;6.70;99.90;;;;;;5071489;28;20131;-48
2022/11/16 08:36:53;;;;;;;26.75;13.82;;;6.70;99.90;;;;;;5071230;28;20041;-49
2022/11/16 08:39:25;;;;;;;25.25;12.95;;;6.70;99.90;;;;;;5071339;28;20052;-49
2022/11/16 08:41:52;;;;;;;23.67;13.85;;;6.70;99.90;;;;;;5059242;28;20493;-49
2022/11/16 08:44:19;;;;;;;26.40;13.52;;;6.60;99.90;;;;;;5071414;28;20044;-48
2022/11/16 08:46:50;;;;;;;26.35;13.05;;;6.60;99.90;;;;;;5054535;28;20072;-49
2022/11/16 08:49:37;;;;;;;25.50;13.55;;;6.70;99.90;;;;;;5066008;28;20048;-50
2022/11/16 08:52:04;;;;;;;21.35;12.70;;;6.70;99.90;;;;;;5068088;28;20097;-48
2022/11/16 08:54:32;;;;;;;25.33;12.85;;;6.70;99.90;;;;;;5065220;28;20037;-49
2022/11/16 08:56:59;;;;;;;25.60;12.52;;;6.70;99.90;;;;;;5071244;28;20053;-49
2022/11/16 08:59:28;;;;;;;25.70;13.43;;;6.70;99.90;;;;;;5064046;28;20048;-49
2022/11/16 09:02:02;;;;;;;29.58;14.20;;;6.80;99.90;;;;;;5064201;28;20052;-49
2022/11/16 09:04:28;;;;;;;35.47;17.90;;;6.90;99.90;;;;;;5072000;28;20075;-49
2022/11/16 09:07:02;;;;;;;60.47;33.20;;;7.00;99.90;;;;;;5072147;28;20404;-51
2022/11/16 09:09:29;;;;;;;40.72;25.50;;;7.00;99.90;;;;;;5070247;28;20060;-48
2022/11/16 09:11:56;;;;;;;32.30;16.27;;;7.00;99.90;;;;;;5078087;22;20103;-52
2022/11/16 09:14:22;;;;;;;29.85;13.73;;;7.10;99.90;;;;;;5038223;28;20103;-50
2022/11/16 09:16:49;;;;;;;24.20;13.50;;;7.10;99.90;;;;;;5032273;28;20065;-51
2022/11/16 09:19:16;;;;;;;27.27;14.20;;;7.10;99.90;;;;;;5036501;28;20697;-49
2022/11/16 09:21:44;;;;;;;27.63;12.73;;;7.10;99.90;;;;;;5047073;28;20453;-49
2022/11/16 09:24:11;;;;;;;19.77;12.23;;;7.10;99.90;;;;;;5032373;28;20053;-50
2022/11/16 09:26:38;;;;;;;21.23;11.38;;;7.20;99.90;;;;;;5032409;28;20057;-50
2022/11/16 09:29:04;;;;;;;28.88;13.77;;;7.30;99.90;;;;;;5032203;28;20042;-50
2022/11/16 09:31:33;;;;;;;36.85;17.25;;;7.40;99.90;;;;;;5017158;28;20486;-51
2022/11/16 09:34:01;;;;;;;27.10;14.95;;;7.40;99.90;;;;;;5012608;28;20037;-50
2022/11/16 09:36:29;;;;;;;26.35;13.13;;;7.50;99.90;;;;;;5015921;28;20445;-50
2022/11/16 09:38:57;;;;;;;22.42;13.15;;;7.50;99.90;;;;;;5012523;28;20069;-50
2022/11/16 09:42:02;;;;;;;22.85;12.85;;;7.50;99.90;;;;;;5010679;28;20042;-52
2022/11/16 09:45:07;;;;;;;22.05;12.23;;;7.50;99.90;;;;;;5012494;28;20046;-49
2022/11/16 09:47:44;;;;;;;22.80;12.10;;;7.50;99.90;;;;;;5026548;28;20038;-54
2022/11/16 09:50:48;;;;;;;20.25;11.48;;;7.40;99.90;;;;;;5023027;28;20092;-52
2022/11/16 09:53:52;;;;;;;19.70;11.18;;;7.40;99.90;;;;;;5030351;28;20091;-50
2022/11/16 09:56:25;;;;;;;19.65;11.32;;;7.50;99.90;;;;;;5001707;28;20449;-51
2022/11/16 09:59:11;;;;;;;23.33;12.77;;;7.50;99.90;;;;;;5032603;28;20112;-49
2022/11/16 10:01:46;;;;;;;26.92;13.18;;;7.50;99.90;;;;;;5029895;28;20042;-52
2022/11/16 10:04:23;;;;;;;28.20;14.13;;;7.60;99.90;;;;;;5031784;28;20560;-51
2022/11/16 10:07:21;;;;;;;30.02;14.30;;;7.70;99.90;;;;;;5028843;28;20042;-50
2022/11/16 10:09:48;;;;;;;25.77;14.55;;;7.70;99.90;;;;;;5011786;28;20103;-50
2022/11/16 10:12:42;;;;;;;23.23;13.52;;;7.80;99.90;;;;;;5009837;28;20041;-50
2022/11/16 10:15:41;;;;;;;27.23;14.20;;;7.90;99.90;;;;;;5024603;28;20104;-53
2022/11/16 10:19:01;;;;;;;23.98;12.88;;;7.90;99.90;;;;;;5030847;28;20100;-53
2022/11/16 10:21:36;;;;;;;20.90;12.55;;;8.00;99.90;;;;;;4949089;29;20055;-54
2022/11/16 10:24:28;;;;;;;25.65;13.93;;;8.00;99.90;;;;;;5010790;28;20054;-51
2022/11/16 10:27:06;;;;;;;21.05;11.82;;;8.00;99.90;;;;;;5003806;28;20062;-51
2022/11/16 10:29:45;;;;;;;20.00;11.98;;;8.00;99.90;;;;;;5025593;28;20512;-50
2022/11/16 10:32:44;;;;;;;26.73;12.70;;;8.10;99.90;;;;;;5030556;28;20037;-50
2022/11/16 10:35:11;;;;;;;24.63;12.02;;;8.00;99.90;;;;;;4987488;28;20057;-53
2022/11/16 10:37:47;;;;;;;21.60;11.32;;;8.00;99.90;;;;;;5023976;28;20038;-52
2022/11/16 10:40:24;;;;;;;19.98;12.10;;;7.90;99.90;;;;;;5031122;28;20041;-52
2022/11/16 10:43:09;;;;;;;24.85;12.95;;;7.90;99.90;;;;;;5011775;28;20068;-49
2022/11/16 10:45:42;;;;;;;26.33;13.00;;;7.90;99.90;;;;;;5011487;28;20493;-50
2022/11/16 10:48:38;;;;;;;23.35;12.20;;;7.90;99.90;;;;;;5012926;28;20096;-50
2022/11/16 10:51:07;;;;;;;26.95;13.25;;;7.90;99.90;;;;;;5014643;28;20119;-51
2022/11/16 10:53:39;;;;;;;27.23;13.48;;;7.90;99.90;;;;;;5011934;28;20491;-50
2022/11/16 10:56:29;;;;;;;25.48;12.18;;;7.80;99.90;;;;;;5031341;28;20045;-53
2022/11/16 10:59:01;;;;;;;23.67;12.90;;;7.80;99.90;;;;;;5018714;28;20069;-51
2022/11/16 11:01:40;;;;;;;25.90;13.93;;;7.80;99.90;;;;;;5025476;28;20045;-49
2022/11/16 11:04:20;;;;;;;20.65;13.02;;;7.90;99.90;;;;;;5035345;28;20056;-49
2022/11/16 11:06:53;;;;;;;27.73;13.60;;;7.90;99.90;;;;;;5026996;28;20045;-49
2022/11/16 11:09:26;;;;;;;29.05;13.90;;;7.90;99.90;;;;;;5019146;28;20052;-50
2022/11/16 11:12:39;;;;;;;31.27;15.98;;;8.00;99.90;;;;;;5016469;28;20044;-50
2022/11/16 11:15:24;;;;;;;32.08;18.02;;;8.00;99.90;;;;;;5034737;28;20095;-51
2022/11/16 11:18:14;;;;;;;32.38;16.38;;;8.00;99.90;;;;;;5033673;28;20120;-50
2022/11/16 11:20:44;;;;;;;24.05;14.02;;;8.00;99.90;;;;;;5034961;28;20057;-50
2022/11/16 11:23:15;;;;;;;24.63;14.68;;;8.10;99.90;;;;;;5033210;28;20057;-50
2022/11/16 11:25:57;;;;;;;25.85;15.35;;;8.10;99.90;;;;;;5033181;28;20489;-54
2022/11/16 11:28:27;;;;;;;22.00;13.65;;;8.20;99.90;;;;;;5034809;28;20041;-50
2022/11/16 11:31:26;;;;;;;19.17;11.90;;;8.30;99.90;;;;;;5032475;28;20050;-53
2022/11/16 11:34:11;;;;;;;28.80;13.57;;;8.30;99.90;;;;;;5000003;28;20053;-53
2022/11/16 11:36:54;;;;;;;30.13;14.80;;;8.40;99.90;;;;;;5013637;28;20042;-52
2022/11/16 11:39:21;;;;;;;22.13;11.38;;;8.40;99.90;;;;;;5014537;28;20123;-50
2022/11/16 11:42:13;;;;;;;19.52;11.05;;;8.30;99.90;;;;;;5026643;28;20621;-50
2022/11/16 11:44:50;;;;;;;18.63;10.48;;;8.40;99.90;;;;;;5021586;28;20133;-50
2022/11/16 11:47:39;;;;;;;19.65;11.35;;;8.40;99.90;;;;;;5034401;28;20042;-52
2022/11/16 11:50:51;;;;;;;21.38;10.60;;;8.40;99.90;;;;;;5028229;28;20546;-50
2022/11/16 11:53:44;;;;;;;18.35;10.35;;;8.50;99.90;;;;;;5014058;28;20050;-50
2022/11/16 11:56:13;;;;;;;20.67;11.73;;;8.60;99.90;;;;;;5015064;28;20077;-49
2022/11/16 11:58:41;;;;;;;22.15;11.85;;;8.70;99.90;;;;;;5014867;28;20498;-50
2022/11/16 12:01:25;;;;;;;22.63;12.20;;;8.70;99.90;;;;;;5014430;28;20041;-50
2022/11/16 12:04:35;;;;;;;23.15;10.95;;;8.80;99.90;;;;;;5013947;28;20111;-53
2022/11/16 12:07:02;;;;;;;;;;;8.90;99.90;;;;;;5022256;28;20045;-52
2022/11/16 12:09:50;;;;;;;20.92;12.23;;;9.00;99.90;;;;;;5014061;28;19953;-50
2022/11/16 12:12:44;;;;;;;24.85;12.85;;;9.00;99.90;;;;;;5013011;28;20041;-50
2022/11/16 12:15:29;;;;;;;25.27;12.93;;;9.00;99.90;;;;;;5014155;28;20465;-50
2022/11/16 12:18:08;;;;;;;23.83;14.00;;;9.00;99.90;;;;;;5013895;28;20041;-49
2022/11/16 12:21:11;;;;;;;22.38;13.40;;;9.00;99.90;;;;;;5012306;28;20096;-50
2022/11/16 12:23:58;;;;;;;26.00;14.25;;;8.90;99.90;;;;;;5017830;28;20344;-52
2022/11/16 12:26:48;;;;;;;26.42;15.68;;;8.90;99.90;;;;;;5013878;28;20468;-50
2022/11/16 12:29:25;;;;;;;27.77;16.38;;;8.80;99.90;;;;;;5013891;28;20034;-49
2022/11/16 12:32:14;;;;;;;18.77;10.93;;;8.80;99.90;;;;;;5021221;28;20045;-51
2022/11/16 12:35:18;;;;;;;23.92;13.15;;;8.80;99.90;;;;;;5027979;28;20076;-50
2022/11/16 12:38:16;;;;;;;23.45;13.23;;;8.80;99.90;;;;;;5033368;28;20560;-51
2022/11/16 12:41:15;;;;;;;23.00;13.57;;;8.80;99.90;;;;;;5029791;28;20117;-51
2022/11/16 12:44:03;;;;;;;22.48;13.43;;;8.90;99.90;;;;;;5013384;28;20666;-50
2022/11/16 12:46:42;;;;;;;25.75;12.98;;;8.90;99.90;;;;;;5018858;28;20111;-50
2022/11/16 12:49:30;;;;;;;26.55;13.10;;;8.90;99.90;;;;;;5031903;28;20085;-49
2022/11/16 12:52:16;;;;;;;18.10;11.03;;;8.90;99.90;;;;;;5023712;28;20494;-50
2022/11/16 12:54:56;;;;;;;20.27;11.38;;;8.90;99.90;;;;;;5013122;28;20054;-50
2022/11/16 12:58:12;;;;;;;19.52;10.85;;;9.00;99.90;;;;;;5016161;28;20116;-51
2022/11/16 13:00:42;;;;;;;25.40;11.95;;;9.00;99.90;;;;;;5017365;28;20077;-52
2022/11/16 13:03:20;;;;;;;20.77;9.95;;;9.00;99.90;;;;;;5032207;28;20042;-54
2022/11/16 13:06:06;;;;;;;18.80;11.27;;;9.00;99.90;;;;;;5032318;28;20075;-51
2022/11/16 13:08:39;;;;;;;16.98;9.60;;;9.00;99.90;;;;;;5027164;28;20038;-50
2022/11/16 13:11:12;;;;;;;15.70;9.60;;;9.00;99.90;;;;;;5032661;28;20060;-52
2022/11/16 13:13:41;;;;;;;18.80;10.90;;;9.00;99.90;;;;;;5032150;28;20045;-51
2022/11/16 13:16:09;;;;;;;16.88;10.77;;;9.00;99.90;;;;;;5032031;28;20072;-51
2022/11/16 13:18:40;;;;;;;19.65;10.23;;;8.90;99.90;;;;;;5023899;28;20041;-51
2022/11/16 13:21:33;;;;;;;25.20;11.82;;;8.90;99.90;;;;;;5016132;28;20112;-53
2022/11/16 13:24:11;;;;;;;21.90;11.43;;;8.90;99.90;;;;;;5031711;28;20441;-50
2022/11/16 13:26:42;;;;;;;20.05;11.07;;;8.80;99.90;;;;;;5031825;28;20076;-53
2022/11/16 13:29:36;;;;;;;22.98;11.70;;;8.80;99.90;;;;;;5024344;28;20038;-52
2022/11/16 13:32:13;;;;;;;23.63;11.43;;;8.80;99.90;;;;;;5020842;28;20042;-50
2022/11/16 13:34:40;;;;;;;19.42;12.45;;;8.80;99.90;;;;;;5027036;28;20180;-51
2022/11/16 13:37:35;;;;;;;19.23;11.95;;;8.80;99.90;;;;;;5021035;28;20454;-49
2022/11/16 13:40:02;;;;;;;18.58;12.10;;;8.70;99.90;;;;;;5011541;28;20077;-50
2022/11/16 13:42:56;;;;;;;23.15;12.20;;;8.70;99.90;;;;;;5012235;28;20473;-51
2022/11/16 13:45:25;;;;;;;22.20;12.80;;;8.70;99.90;;;;;;5027585;28;20069;-51
2022/11/16 13:47:56;;;;;;;24.00;12.57;;;8.90;99.90;;;;;;5027573;28;20053;-51
2022/11/16 13:50:32;;;;;;;20.08;12.30;;;8.70;99.90;;;;;;5011020;28;20475;-51
2022/11/16 13:53:06;;;;;;;22.40;13.15;;;8.70;99.90;;;;;;5015591;28;20100;-51
2022/11/16 13:55:56;;;;;;;24.20;12.63;;;8.70;99.90;;;;;;5011915;28;20121;-52
2022/11/16 13:58:24;;;;;;;27.13;15.05;;;8.80;99.90;;;;;;5011682;28;20046;-52
2022/11/16 14:00:59;;;;;;;24.35;13.68;;;8.80;99.90;;;;;;5018241;28;20453;-50
2022/11/16 14:03:29;;;;;;;21.70;13.82;;;8.80;99.90;;;;;;5024376;28;20045;-51
2022/11/16 14:05:56;;;;;;;23.70;14.50;;;8.80;99.90;;;;;;5030437;28;20042;-51